sensor_id;sensor_type;location;lat;lon;timestamp;P1;durP1;ratioP1;P2;durP2;ratioP2
73487;SDS011;61721;42.206;25.320;2022-11-12T00:00:38;3.83;;;1.80;;
73487;SDS011;61721;42.206;25.320;2022-11-12T00:03:05;4.93;;;1.60;;
73487;SDS011;61721;42.206;25.320;2022-11-12T00:05:33;3.72;;;1.92;;
73487;SDS011;61721;42.206;25.320;2022-11-12T00:08:00;6.57;;;2.10;;
73487;SDS011;61721;42.206;25.320;2022-11-12T00:10:28;4.10;;;2.33;;
73487;SDS011;61721;42.206;25.320;2022-11-12T00:12:56;4.00;;;1.92;;
73487;SDS011;61721;42.206;25.320;2022-11-12T00:15:24;5.35;;;2.28;;
73487;SDS011;61721;42.206;25.320;2022-11-12T00:17:52;4.57;;;2.45;;
73487;SDS011;61721;42.206;25.320;2022-11-12T00:20:19;4.55;;;2.15;;
73487;SDS011;61721;42.206;25.320;2022-11-12T00:22:46;6.05;;;2.33;;
73487;SDS011;61721;42.206;25.320;2022-11-12T00:25:14;5.05;;;2.85;;
73487;SDS011;61721;42.206;25.320;2022-11-12T00:27:41;4.10;;;2.58;;
73487;SDS011;61721;42.206;25.320;2022-11-12T00:30:08;4.82;;;2.80;;
73487;SDS011;61721;42.206;25.320;2022-11-12T00:32:37;4.82;;;2.70;;
73487;SDS011;61721;42.206;25.320;2022-11-12T00:35:05;5.13;;;2.10;;
73487;SDS011;61721;42.206;25.320;2022-11-12T00:37:33;4.25;;;2.35;;
73487;SDS011;61721;42.206;25.320;2022-11-12T00:40:00;4.45;;;2.15;;
73487;SDS011;61721;42.206;25.320;2022-11-12T00:42:27;4.50;;;1.98;;
73487;SDS011;61721;42.206;25.320;2022-11-12T00:44:54;4.47;;;2.30;;
73487;SDS011;61721;42.206;25.320;2022-11-12T00:47:21;5.43;;;2.10;;
73487;SDS011;61721;42.206;25.320;2022-11-12T00:49:50;7.35;;;2.42;;
73487;SDS011;61721;42.206;25.320;2022-11-12T00:52:17;6.03;;;2.30;;
73487;SDS011;61721;42.206;25.320;2022-11-12T00:54:44;4.50;;;2.30;;
73487;SDS011;61721;42.206;25.320;2022-11-12T00:57:11;4.10;;;2.20;;
73487;SDS011;61721;42.206;25.320;2022-11-12T00:59:38;5.47;;;2.42;;
73487;SDS011;61721;42.206;25.320;2022-11-12T01:02:05;4.43;;;2.20;;
73487;SDS011;61721;42.206;25.320;2022-11-12T01:04:33;5.32;;;2.22;;
73487;SDS011;61721;42.206;25.320;2022-11-12T01:07:01;6.07;;;2.40;;
73487;SDS011;61721;42.206;25.320;2022-11-12T01:09:28;4.22;;;2.20;;
73487;SDS011;61721;42.206;25.320;2022-11-12T01:11:56;4.68;;;2.53;;
73487;SDS011;61721;42.206;25.320;2022-11-12T01:14:23;4.93;;;2.38;;
73487;SDS011;61721;42.206;25.320;2022-11-12T01:16:50;4.85;;;2.72;;
73487;SDS011;61721;42.206;25.320;2022-11-12T01:19:17;4.57;;;2.17;;
73487;SDS011;61721;42.206;25.320;2022-11-12T01:21:44;6.55;;;2.75;;
73487;SDS011;61721;42.206;25.320;2022-11-12T01:24:13;5.30;;;2.60;;
73487;SDS011;61721;42.206;25.320;2022-11-12T01:26:40;6.22;;;2.50;;
73487;SDS011;61721;42.206;25.320;2022-11-12T01:29:07;3.95;;;2.22;;
73487;SDS011;61721;42.206;25.320;2022-11-12T01:31:35;4.75;;;2.40;;
73487;SDS011;61721;42.206;25.320;2022-11-12T01:34:03;4.30;;;2.30;;
73487;SDS011;61721;42.206;25.320;2022-11-12T01:36:32;4.85;;;2.13;;
73487;SDS011;61721;42.206;25.320;2022-11-12T01:39:00;4.65;;;1.92;;
73487;SDS011;61721;42.206;25.320;2022-11-12T01:41:31;4.38;;;1.95;;
73487;SDS011;61721;42.206;25.320;2022-11-12T01:44:07;3.47;;;1.85;;
73487;SDS011;61721;42.206;25.320;2022-11-12T01:46:36;4.00;;;2.00;;
73487;SDS011;61721;42.206;25.320;2022-11-12T01:49:14;3.63;;;1.77;;
73487;SDS011;61721;42.206;25.320;2022-11-12T01:51:48;4.97;;;2.20;;
73487;SDS011;61721;42.206;25.320;2022-11-12T01:54:17;4.13;;;2.05;;
73487;SDS011;61721;42.206;25.320;2022-11-12T01:56:48;4.80;;;2.10;;
73487;SDS011;61721;42.206;25.320;2022-11-12T01:59:18;4.57;;;1.95;;
73487;SDS011;61721;42.206;25.320;2022-11-12T02:01:50;4.35;;;2.55;;
73487;SDS011;61721;42.206;25.320;2022-11-12T02:04:17;4.50;;;2.42;;
73487;SDS011;61721;42.206;25.320;2022-11-12T02:06:46;4.65;;;2.35;;
73487;SDS011;61721;42.206;25.320;2022-11-12T02:09:15;5.97;;;2.42;;
73487;SDS011;61721;42.206;25.320;2022-11-12T02:11:43;5.28;;;2.72;;
73487;SDS011;61721;42.206;25.320;2022-11-12T02:14:12;4.88;;;2.58;;
73487;SDS011;61721;42.206;25.320;2022-11-12T02:16:39;4.18;;;2.33;;
73487;SDS011;61721;42.206;25.320;2022-11-12T02:19:08;5.35;;;2.83;;
73487;SDS011;61721;42.206;25.320;2022-11-12T02:21:38;4.85;;;2.42;;
73487;SDS011;61721;42.206;25.320;2022-11-12T02:24:26;4.75;;;2.65;;
73487;SDS011;61721;42.206;25.320;2022-11-12T02:27:02;5.20;;;2.80;;
73487;SDS011;61721;42.206;25.320;2022-11-12T02:29:31;5.70;;;2.97;;
73487;SDS011;61721;42.206;25.320;2022-11-12T02:31:58;5.38;;;2.67;;
73487;SDS011;61721;42.206;25.320;2022-11-12T02:34:26;6.65;;;3.05;;
73487;SDS011;61721;42.206;25.320;2022-11-12T02:36:54;7.35;;;2.83;;
73487;SDS011;61721;42.206;25.320;2022-11-12T02:39:21;6.63;;;2.80;;
73487;SDS011;61721;42.206;25.320;2022-11-12T02:41:48;5.68;;;3.17;;
73487;SDS011;61721;42.206;25.320;2022-11-12T02:44:16;5.95;;;3.17;;
73487;SDS011;61721;42.206;25.320;2022-11-12T02:46:43;5.43;;;3.03;;
73487;SDS011;61721;42.206;25.320;2022-11-12T02:49:10;5.97;;;2.85;;
73487;SDS011;61721;42.206;25.320;2022-11-12T02:51:37;5.75;;;3.00;;
73487;SDS011;61721;42.206;25.320;2022-11-12T02:54:06;5.93;;;3.38;;
73487;SDS011;61721;42.206;25.320;2022-11-12T02:56:33;5.38;;;2.97;;
73487;SDS011;61721;42.206;25.320;2022-11-12T02:59:00;7.25;;;3.10;;
73487;SDS011;61721;42.206;25.320;2022-11-12T03:01:27;11.05;;;5.22;;
73487;SDS011;61721;42.206;25.320;2022-11-12T03:03:54;7.00;;;4.00;;
73487;SDS011;61721;42.206;25.320;2022-11-12T03:06:21;6.32;;;3.13;;
73487;SDS011;61721;42.206;25.320;2022-11-12T03:08:49;4.97;;;3.05;;
73487;SDS011;61721;42.206;25.320;2022-11-12T03:11:17;5.72;;;2.97;;
73487;SDS011;61721;42.206;25.320;2022-11-12T03:13:44;6.45;;;3.30;;
73487;SDS011;61721;42.206;25.320;2022-11-12T03:16:12;6.63;;;3.47;;
73487;SDS011;61721;42.206;25.320;2022-11-12T03:18:39;8.95;;;4.43;;
73487;SDS011;61721;42.206;25.320;2022-11-12T03:21:06;8.02;;;4.28;;
73487;SDS011;61721;42.206;25.320;2022-11-12T03:23:33;8.52;;;4.63;;
73487;SDS011;61721;42.206;25.320;2022-11-12T03:26:01;7.10;;;3.67;;
73487;SDS011;61721;42.206;25.320;2022-11-12T03:28:30;5.38;;;3.55;;
73487;SDS011;61721;42.206;25.320;2022-11-12T03:30:57;5.82;;;3.22;;
73487;SDS011;61721;42.206;25.320;2022-11-12T03:33:25;6.57;;;3.60;;
73487;SDS011;61721;42.206;25.320;2022-11-12T03:35:52;7.15;;;3.95;;
73487;SDS011;61721;42.206;25.320;2022-11-12T03:38:20;8.70;;;4.00;;
73487;SDS011;61721;42.206;25.320;2022-11-12T03:40:47;9.82;;;4.07;;
73487;SDS011;61721;42.206;25.320;2022-11-12T03:43:15;5.88;;;3.30;;
73487;SDS011;61721;42.206;25.320;2022-11-12T03:45:43;6.55;;;3.83;;
73487;SDS011;61721;42.206;25.320;2022-11-12T03:48:10;7.75;;;4.22;;
73487;SDS011;61721;42.206;25.320;2022-11-12T03:50:37;6.60;;;3.70;;
73487;SDS011;61721;42.206;25.320;2022-11-12T03:53:05;8.13;;;3.42;;
73487;SDS011;61721;42.206;25.320;2022-11-12T03:55:32;6.88;;;3.50;;
73487;SDS011;61721;42.206;25.320;2022-11-12T03:57:59;6.43;;;4.03;;
73487;SDS011;61721;42.206;25.320;2022-11-12T04:00:27;5.43;;;3.63;;
73487;SDS011;61721;42.206;25.320;2022-11-12T04:02:56;6.13;;;3.83;;
73487;SDS011;61721;42.206;25.320;2022-11-12T04:05:24;7.78;;;3.85;;
73487;SDS011;61721;42.206;25.320;2022-11-12T04:08:11;6.75;;;3.58;;
73487;SDS011;61721;42.206;25.320;2022-11-12T04:10:58;5.78;;;3.45;;
73487;SDS011;61721;42.206;25.320;2022-11-12T04:13:25;8.55;;;4.32;;
73487;SDS011;61721;42.206;25.320;2022-11-12T04:15:56;7.20;;;3.70;;
73487;SDS011;61721;42.206;25.320;2022-11-12T04:18:43;6.05;;;3.50;;
73487;SDS011;61721;42.206;25.320;2022-11-12T04:21:30;6.72;;;3.90;;
73487;SDS011;61721;42.206;25.320;2022-11-12T04:24:21;8.07;;;4.10;;
73487;SDS011;61721;42.206;25.320;2022-11-12T04:27:07;7.47;;;3.90;;
73487;SDS011;61721;42.206;25.320;2022-11-12T04:29:36;6.90;;;3.80;;
73487;SDS011;61721;42.206;25.320;2022-11-12T04:32:21;8.40;;;4.50;;
73487;SDS011;61721;42.206;25.320;2022-11-12T04:34:51;8.20;;;4.35;;
73487;SDS011;61721;42.206;25.320;2022-11-12T04:37:19;8.82;;;4.55;;
73487;SDS011;61721;42.206;25.320;2022-11-12T04:39:47;8.75;;;4.43;;
73487;SDS011;61721;42.206;25.320;2022-11-12T04:42:14;11.10;;;4.82;;
73487;SDS011;61721;42.206;25.320;2022-11-12T04:44:58;8.80;;;4.53;;
73487;SDS011;61721;42.206;25.320;2022-11-12T04:47:29;9.32;;;5.00;;
73487;SDS011;61721;42.206;25.320;2022-11-12T04:49:59;6.65;;;4.28;;
73487;SDS011;61721;42.206;25.320;2022-11-12T04:52:28;8.07;;;5.05;;
73487;SDS011;61721;42.206;25.320;2022-11-12T04:54:56;8.48;;;4.85;;
73487;SDS011;61721;42.206;25.320;2022-11-12T04:57:24;9.77;;;4.88;;
73487;SDS011;61721;42.206;25.320;2022-11-12T04:59:52;8.25;;;4.68;;
73487;SDS011;61721;42.206;25.320;2022-11-12T05:02:19;9.70;;;5.78;;
73487;SDS011;61721;42.206;25.320;2022-11-12T05:04:46;9.68;;;4.68;;
73487;SDS011;61721;42.206;25.320;2022-11-12T05:07:15;10.23;;;5.53;;
73487;SDS011;61721;42.206;25.320;2022-11-12T05:09:42;8.25;;;5.15;;
73487;SDS011;61721;42.206;25.320;2022-11-12T05:12:10;8.38;;;5.20;;
73487;SDS011;61721;42.206;25.320;2022-11-12T05:14:37;7.88;;;4.60;;
73487;SDS011;61721;42.206;25.320;2022-11-12T05:17:04;8.35;;;5.20;;
73487;SDS011;61721;42.206;25.320;2022-11-12T05:19:32;9.70;;;5.78;;
73487;SDS011;61721;42.206;25.320;2022-11-12T05:21:59;9.75;;;5.68;;
73487;SDS011;61721;42.206;25.320;2022-11-12T05:24:38;10.95;;;5.97;;
73487;SDS011;61721;42.206;25.320;2022-11-12T05:27:07;8.23;;;5.28;;
73487;SDS011;61721;42.206;25.320;2022-11-12T05:29:36;9.10;;;5.40;;
73487;SDS011;61721;42.206;25.320;2022-11-12T05:32:04;11.40;;;5.03;;
73487;SDS011;61721;42.206;25.320;2022-11-12T05:34:31;10.90;;;4.93;;
73487;SDS011;61721;42.206;25.320;2022-11-12T05:37:00;8.90;;;4.90;;
73487;SDS011;61721;42.206;25.320;2022-11-12T05:39:28;7.55;;;4.82;;
73487;SDS011;61721;42.206;25.320;2022-11-12T05:41:56;9.68;;;5.38;;
73487;SDS011;61721;42.206;25.320;2022-11-12T05:44:24;9.18;;;5.13;;
73487;SDS011;61721;42.206;25.320;2022-11-12T05:46:51;9.75;;;4.95;;
73487;SDS011;61721;42.206;25.320;2022-11-12T05:49:18;11.23;;;6.95;;
73487;SDS011;61721;42.206;25.320;2022-11-12T05:51:45;15.70;;;10.90;;
73487;SDS011;61721;42.206;25.320;2022-11-12T05:54:13;14.23;;;10.18;;
73487;SDS011;61721;42.206;25.320;2022-11-12T05:56:40;13.98;;;8.65;;
73487;SDS011;61721;42.206;25.320;2022-11-12T05:59:09;24.92;;;17.90;;
73487;SDS011;61721;42.206;25.320;2022-11-12T06:01:38;21.55;;;14.85;;
73487;SDS011;61721;42.206;25.320;2022-11-12T06:04:09;27.25;;;17.75;;
73487;SDS011;61721;42.206;25.320;2022-11-12T06:06:37;16.42;;;10.73;;
73487;SDS011;61721;42.206;25.320;2022-11-12T06:09:05;17.52;;;10.15;;
73487;SDS011;61721;42.206;25.320;2022-11-12T06:11:33;22.67;;;14.68;;
73487;SDS011;61721;42.206;25.320;2022-11-12T06:14:01;25.80;;;15.57;;
73487;SDS011;61721;42.206;25.320;2022-11-12T06:16:30;22.45;;;10.95;;
73487;SDS011;61721;42.206;25.320;2022-11-12T06:18:57;23.35;;;13.38;;
73487;SDS011;61721;42.206;25.320;2022-11-12T06:21:25;24.00;;;13.77;;
73487;SDS011;61721;42.206;25.320;2022-11-12T06:23:53;21.45;;;13.15;;
73487;SDS011;61721;42.206;25.320;2022-11-12T06:26:21;14.68;;;8.73;;
73487;SDS011;61721;42.206;25.320;2022-11-12T06:28:49;24.10;;;13.15;;
73487;SDS011;61721;42.206;25.320;2022-11-12T06:31:17;15.77;;;9.15;;
73487;SDS011;61721;42.206;25.320;2022-11-12T06:33:46;11.52;;;7.90;;
73487;SDS011;61721;42.206;25.320;2022-11-12T06:36:14;11.27;;;6.65;;
73487;SDS011;61721;42.206;25.320;2022-11-12T06:38:43;39.53;;;20.77;;
73487;SDS011;61721;42.206;25.320;2022-11-12T06:41:11;14.18;;;9.25;;
73487;SDS011;61721;42.206;25.320;2022-11-12T06:43:39;15.13;;;9.60;;
73487;SDS011;61721;42.206;25.320;2022-11-12T06:46:07;20.88;;;10.82;;
73487;SDS011;61721;42.206;25.320;2022-11-12T06:48:37;16.77;;;10.07;;
73487;SDS011;61721;42.206;25.320;2022-11-12T06:51:07;19.50;;;11.63;;
73487;SDS011;61721;42.206;25.320;2022-11-12T06:53:36;26.67;;;15.63;;
73487;SDS011;61721;42.206;25.320;2022-11-12T06:56:04;19.05;;;10.52;;
73487;SDS011;61721;42.206;25.320;2022-11-12T06:58:33;12.40;;;7.57;;
73487;SDS011;61721;42.206;25.320;2022-11-12T07:01:07;33.60;;;14.75;;
73487;SDS011;61721;42.206;25.320;2022-11-12T07:03:36;29.60;;;14.30;;
73487;SDS011;61721;42.206;25.320;2022-11-12T07:06:04;17.73;;;10.07;;
73487;SDS011;61721;42.206;25.320;2022-11-12T07:08:35;33.72;;;16.05;;
73487;SDS011;61721;42.206;25.320;2022-11-12T07:11:03;20.33;;;11.38;;
73487;SDS011;61721;42.206;25.320;2022-11-12T07:13:31;11.95;;;7.88;;
73487;SDS011;61721;42.206;25.320;2022-11-12T07:15:59;16.77;;;9.55;;
73487;SDS011;61721;42.206;25.320;2022-11-12T07:18:27;14.55;;;8.52;;
73487;SDS011;61721;42.206;25.320;2022-11-12T07:20:58;12.68;;;7.15;;
73487;SDS011;61721;42.206;25.320;2022-11-12T07:23:28;12.88;;;7.47;;
73487;SDS011;61721;42.206;25.320;2022-11-12T07:25:57;10.75;;;5.97;;
73487;SDS011;61721;42.206;25.320;2022-11-12T07:28:26;12.77;;;7.38;;
73487;SDS011;61721;42.206;25.320;2022-11-12T07:30:54;10.20;;;4.82;;
73487;SDS011;61721;42.206;25.320;2022-11-12T07:33:22;25.75;;;13.07;;
73487;SDS011;61721;42.206;25.320;2022-11-12T07:35:55;12.25;;;6.97;;
73487;SDS011;61721;42.206;25.320;2022-11-12T07:38:23;18.90;;;10.75;;
73487;SDS011;61721;42.206;25.320;2022-11-12T07:40:56;9.25;;;4.97;;
73487;SDS011;61721;42.206;25.320;2022-11-12T07:43:24;10.35;;;7.13;;
73487;SDS011;61721;42.206;25.320;2022-11-12T07:45:51;8.65;;;4.82;;
73487;SDS011;61721;42.206;25.320;2022-11-12T07:48:19;16.00;;;9.90;;
73487;SDS011;61721;42.206;25.320;2022-11-12T07:50:46;27.55;;;15.00;;
73487;SDS011;61721;42.206;25.320;2022-11-12T07:53:13;25.85;;;13.60;;
73487;SDS011;61721;42.206;25.320;2022-11-12T07:55:40;34.25;;;16.75;;
73487;SDS011;61721;42.206;25.320;2022-11-12T07:58:09;23.88;;;11.93;;
73487;SDS011;61721;42.206;25.320;2022-11-12T08:00:36;24.98;;;13.07;;
73487;SDS011;61721;42.206;25.320;2022-11-12T08:03:03;39.38;;;19.27;;
73487;SDS011;61721;42.206;25.320;2022-11-12T08:05:32;7.65;;;4.88;;
73487;SDS011;61721;42.206;25.320;2022-11-12T08:08:00;8.75;;;5.00;;
73487;SDS011;61721;42.206;25.320;2022-11-12T08:10:27;10.27;;;5.28;;
73487;SDS011;61721;42.206;25.320;2022-11-12T08:12:54;7.68;;;4.75;;
73487;SDS011;61721;42.206;25.320;2022-11-12T08:15:23;10.48;;;5.82;;
73487;SDS011;61721;42.206;25.320;2022-11-12T08:17:50;7.20;;;4.15;;
73487;SDS011;61721;42.206;25.320;2022-11-12T08:20:17;14.60;;;6.78;;
73487;SDS011;61721;42.206;25.320;2022-11-12T08:22:44;22.83;;;9.55;;
73487;SDS011;61721;42.206;25.320;2022-11-12T08:25:12;8.95;;;4.40;;
73487;SDS011;61721;42.206;25.320;2022-11-12T08:27:39;15.88;;;5.47;;
73487;SDS011;61721;42.206;25.320;2022-11-12T08:30:07;16.50;;;6.70;;
73487;SDS011;61721;42.206;25.320;2022-11-12T08:32:36;27.83;;;10.57;;
73487;SDS011;61721;42.206;25.320;2022-11-12T08:35:03;88.55;;;32.30;;
73487;SDS011;61721;42.206;25.320;2022-11-12T08:37:31;68.18;;;23.88;;
73487;SDS011;61721;42.206;25.320;2022-11-12T08:39:58;49.63;;;19.90;;
73487;SDS011;61721;42.206;25.320;2022-11-12T08:42:25;61.67;;;22.52;;
73487;SDS011;61721;42.206;25.320;2022-11-12T08:44:52;61.17;;;22.33;;
73487;SDS011;61721;42.206;25.320;2022-11-12T08:47:19;52.38;;;21.85;;
73487;SDS011;61721;42.206;25.320;2022-11-12T08:49:48;41.75;;;15.60;;
73487;SDS011;61721;42.206;25.320;2022-11-12T08:52:15;29.90;;;13.82;;
73487;SDS011;61721;42.206;25.320;2022-11-12T08:54:42;28.83;;;12.25;;
73487;SDS011;61721;42.206;25.320;2022-11-12T08:57:09;21.88;;;10.48;;
73487;SDS011;61721;42.206;25.320;2022-11-12T08:59:37;12.73;;;7.07;;
73487;SDS011;61721;42.206;25.320;2022-11-12T09:02:04;15.27;;;8.88;;
73487;SDS011;61721;42.206;25.320;2022-11-12T09:04:32;21.90;;;12.00;;
73487;SDS011;61721;42.206;25.320;2022-11-12T09:07:01;12.52;;;6.00;;
73487;SDS011;61721;42.206;25.320;2022-11-12T09:09:28;20.92;;;10.45;;
73487;SDS011;61721;42.206;25.320;2022-11-12T09:11:55;10.32;;;5.65;;
73487;SDS011;61721;42.206;25.320;2022-11-12T09:14:22;22.10;;;11.23;;
73487;SDS011;61721;42.206;25.320;2022-11-12T09:16:49;21.75;;;12.18;;
73487;SDS011;61721;42.206;25.320;2022-11-12T09:19:17;26.02;;;13.63;;
73487;SDS011;61721;42.206;25.320;2022-11-12T09:21:44;19.75;;;9.57;;
73487;SDS011;61721;42.206;25.320;2022-11-12T09:24:13;12.93;;;6.75;;
73487;SDS011;61721;42.206;25.320;2022-11-12T09:26:40;7.35;;;3.80;;
73487;SDS011;61721;42.206;25.320;2022-11-12T09:29:07;8.40;;;4.40;;
73487;SDS011;61721;42.206;25.320;2022-11-12T09:31:34;7.07;;;3.50;;
73487;SDS011;61721;42.206;25.320;2022-11-12T09:34:02;6.43;;;3.47;;
73487;SDS011;61721;42.206;25.320;2022-11-12T09:36:30;13.95;;;5.95;;
73487;SDS011;61721;42.206;25.320;2022-11-12T09:38:57;8.23;;;4.85;;
73487;SDS011;61721;42.206;25.320;2022-11-12T09:41:28;6.65;;;3.30;;
73487;SDS011;61721;42.206;25.320;2022-11-12T09:44:00;8.07;;;4.10;;
73487;SDS011;61721;42.206;25.320;2022-11-12T09:46:34;9.95;;;4.57;;
73487;SDS011;61721;42.206;25.320;2022-11-12T09:49:07;6.55;;;3.70;;
73487;SDS011;61721;42.206;25.320;2022-11-12T09:51:41;4.80;;;2.63;;
73487;SDS011;61721;42.206;25.320;2022-11-12T09:54:17;5.22;;;3.50;;
73487;SDS011;61721;42.206;25.320;2022-11-12T09:56:49;8.02;;;4.65;;
73487;SDS011;61721;42.206;25.320;2022-11-12T09:59:17;14.93;;;8.82;;
73487;SDS011;61721;42.206;25.320;2022-11-12T10:01:48;8.80;;;5.43;;
73487;SDS011;61721;42.206;25.320;2022-11-12T10:04:37;10.02;;;4.85;;
73487;SDS011;61721;42.206;25.320;2022-11-12T10:07:16;11.48;;;5.45;;
73487;SDS011;61721;42.206;25.320;2022-11-12T10:09:57;5.50;;;2.78;;
73487;SDS011;61721;42.206;25.320;2022-11-12T10:12:32;7.00;;;2.78;;
73487;SDS011;61721;42.206;25.320;2022-11-12T10:15:21;5.80;;;2.90;;
73487;SDS011;61721;42.206;25.320;2022-11-12T10:18:16;12.10;;;6.80;;
73487;SDS011;61721;42.206;25.320;2022-11-12T10:20:51;16.77;;;8.52;;
73487;SDS011;61721;42.206;25.320;2022-11-12T10:23:23;13.10;;;6.13;;
73487;SDS011;61721;42.206;25.320;2022-11-12T10:25:56;15.35;;;6.60;;
73487;SDS011;61721;42.206;25.320;2022-11-12T10:28:28;9.95;;;5.10;;
73487;SDS011;61721;42.206;25.320;2022-11-12T10:30:59;19.52;;;7.97;;
73487;SDS011;61721;42.206;25.320;2022-11-12T10:33:31;32.80;;;13.30;;
73487;SDS011;61721;42.206;25.320;2022-11-12T10:36:07;21.48;;;8.32;;
73487;SDS011;61721;42.206;25.320;2022-11-12T10:38:42;44.83;;;17.30;;
73487;SDS011;61721;42.206;25.320;2022-11-12T10:41:20;17.45;;;6.18;;
73487;SDS011;61721;42.206;25.320;2022-11-12T10:43:58;72.43;;;22.40;;
73487;SDS011;61721;42.206;25.320;2022-11-12T10:46:27;68.10;;;27.63;;
73487;SDS011;61721;42.206;25.320;2022-11-12T10:48:57;24.23;;;12.45;;
73487;SDS011;61721;42.206;25.320;2022-11-12T10:51:28;35.05;;;14.15;;
73487;SDS011;61721;42.206;25.320;2022-11-12T10:53:58;18.15;;;8.98;;
73487;SDS011;61721;42.206;25.320;2022-11-12T10:56:44;47.30;;;17.50;;
73487;SDS011;61721;42.206;25.320;2022-11-12T10:59:16;16.27;;;7.30;;
73487;SDS011;61721;42.206;25.320;2022-11-12T11:01:45;22.50;;;11.25;;
73487;SDS011;61721;42.206;25.320;2022-11-12T11:04:27;9.57;;;4.57;;
73487;SDS011;61721;42.206;25.320;2022-11-12T11:07:03;27.85;;;14.73;;
73487;SDS011;61721;42.206;25.320;2022-11-12T11:09:32;9.20;;;5.65;;
73487;SDS011;61721;42.206;25.320;2022-11-12T11:12:00;7.38;;;4.05;;
73487;SDS011;61721;42.206;25.320;2022-11-12T11:14:32;7.80;;;4.28;;
73487;SDS011;61721;42.206;25.320;2022-11-12T11:17:03;6.00;;;3.22;;
73487;SDS011;61721;42.206;25.320;2022-11-12T11:19:35;4.63;;;2.67;;
73487;SDS011;61721;42.206;25.320;2022-11-12T11:22:05;7.38;;;2.80;;
73487;SDS011;61721;42.206;25.320;2022-11-12T11:24:45;4.78;;;2.35;;
73487;SDS011;61721;42.206;25.320;2022-11-12T11:27:24;7.45;;;2.97;;
73487;SDS011;61721;42.206;25.320;2022-11-12T11:30:08;5.78;;;2.92;;
73487;SDS011;61721;42.206;25.320;2022-11-12T11:32:49;5.65;;;2.53;;
73487;SDS011;61721;42.206;25.320;2022-11-12T11:35:38;6.63;;;2.83;;
73487;SDS011;61721;42.206;25.320;2022-11-12T11:38:16;5.07;;;2.78;;
73487;SDS011;61721;42.206;25.320;2022-11-12T11:40:57;5.85;;;2.67;;
73487;SDS011;61721;42.206;25.320;2022-11-12T11:43:38;5.55;;;3.15;;
73487;SDS011;61721;42.206;25.320;2022-11-12T11:46:15;6.57;;;3.25;;
73487;SDS011;61721;42.206;25.320;2022-11-12T11:48:57;7.95;;;3.83;;
73487;SDS011;61721;42.206;25.320;2022-11-12T11:51:37;5.85;;;3.22;;
73487;SDS011;61721;42.206;25.320;2022-11-12T11:54:18;8.60;;;3.75;;
73487;SDS011;61721;42.206;25.320;2022-11-12T11:57:08;11.10;;;4.97;;
73487;SDS011;61721;42.206;25.320;2022-11-12T11:59:40;15.05;;;7.20;;
73487;SDS011;61721;42.206;25.320;2022-11-12T12:02:30;9.23;;;5.43;;
73487;SDS011;61721;42.206;25.320;2022-11-12T12:05:24;10.63;;;6.15;;
73487;SDS011;61721;42.206;25.320;2022-11-12T12:08:01;10.68;;;5.78;;
73487;SDS011;61721;42.206;25.320;2022-11-12T12:10:35;6.13;;;3.72;;
73487;SDS011;61721;42.206;25.320;2022-11-12T12:13:13;7.13;;;3.22;;
73487;SDS011;61721;42.206;25.320;2022-11-12T12:15:56;6.55;;;3.67;;
73487;SDS011;61721;42.206;25.320;2022-11-12T12:18:49;5.82;;;2.92;;
73487;SDS011;61721;42.206;25.320;2022-11-12T12:21:22;5.15;;;3.00;;
73487;SDS011;61721;42.206;25.320;2022-11-12T12:23:52;4.82;;;3.00;;
73487;SDS011;61721;42.206;25.320;2022-11-12T12:26:24;7.40;;;3.60;;
73487;SDS011;61721;42.206;25.320;2022-11-12T12:28:57;6.03;;;3.30;;
73487;SDS011;61721;42.206;25.320;2022-11-12T12:31:31;5.93;;;2.97;;
73487;SDS011;61721;42.206;25.320;2022-11-12T12:34:05;6.15;;;3.10;;
73487;SDS011;61721;42.206;25.320;2022-11-12T12:36:43;6.75;;;3.53;;
73487;SDS011;61721;42.206;25.320;2022-11-12T12:39:14;7.80;;;3.45;;
73487;SDS011;61721;42.206;25.320;2022-11-12T12:41:45;7.57;;;4.00;;
73487;SDS011;61721;42.206;25.320;2022-11-12T12:44:19;8.20;;;4.30;;
73487;SDS011;61721;42.206;25.320;2022-11-12T12:46:47;5.85;;;3.40;;
73487;SDS011;61721;42.206;25.320;2022-11-12T12:49:24;7.05;;;3.95;;
73487;SDS011;61721;42.206;25.320;2022-11-12T12:51:57;7.57;;;3.63;;
73487;SDS011;61721;42.206;25.320;2022-11-12T12:57:26;7.22;;;3.85;;
73487;SDS011;61721;42.206;25.320;2022-11-12T13:02:51;8.45;;;4.93;;
73487;SDS011;61721;42.206;25.320;2022-11-12T13:05:24;8.65;;;4.68;;
73487;SDS011;61721;42.206;25.320;2022-11-12T13:07:53;11.00;;;5.57;;
73487;SDS011;61721;42.206;25.320;2022-11-12T13:13:29;11.40;;;5.15;;
73487;SDS011;61721;42.206;25.320;2022-11-12T13:15:59;6.25;;;4.20;;
73487;SDS011;61721;42.206;25.320;2022-11-12T13:21:29;9.05;;;3.63;;
73487;SDS011;61721;42.206;25.320;2022-11-12T13:23:57;6.30;;;3.60;;
73487;SDS011;61721;42.206;25.320;2022-11-12T13:32:26;6.35;;;3.60;;
73487;SDS011;61721;42.206;25.320;2022-11-12T13:38:00;7.18;;;4.00;;
73487;SDS011;61721;42.206;25.320;2022-11-12T13:40:43;5.68;;;3.45;;
73487;SDS011;61721;42.206;25.320;2022-11-12T13:43:15;6.55;;;3.55;;
73487;SDS011;61721;42.206;25.320;2022-11-12T13:45:52;7.10;;;3.40;;
73487;SDS011;61721;42.206;25.320;2022-11-12T13:48:23;7.35;;;3.60;;
73487;SDS011;61721;42.206;25.320;2022-11-12T13:50:54;7.03;;;3.60;;
73487;SDS011;61721;42.206;25.320;2022-11-12T13:53:29;6.45;;;3.90;;
73487;SDS011;61721;42.206;25.320;2022-11-12T13:55:58;7.80;;;4.07;;
73487;SDS011;61721;42.206;25.320;2022-11-12T13:58:26;9.57;;;5.43;;
73487;SDS011;61721;42.206;25.320;2022-11-12T14:00:55;6.82;;;3.88;;
73487;SDS011;61721;42.206;25.320;2022-11-12T14:03:24;6.30;;;3.40;;
73487;SDS011;61721;42.206;25.320;2022-11-12T14:05:55;6.97;;;3.58;;
73487;SDS011;61721;42.206;25.320;2022-11-12T14:08:31;9.30;;;3.33;;
73487;SDS011;61721;42.206;25.320;2022-11-12T14:11:21;4.80;;;2.75;;
73487;SDS011;61721;42.206;25.320;2022-11-12T14:14:03;5.10;;;2.72;;
73487;SDS011;61721;42.206;25.320;2022-11-12T14:19:23;5.25;;;2.85;;
73487;SDS011;61721;42.206;25.320;2022-11-12T14:22:10;8.88;;;3.60;;
73487;SDS011;61721;42.206;25.320;2022-11-12T14:24:41;6.97;;;3.92;;
73487;SDS011;61721;42.206;25.320;2022-11-12T14:30:10;5.95;;;2.78;;
73487;SDS011;61721;42.206;25.320;2022-11-12T14:32:39;7.70;;;3.08;;
73487;SDS011;61721;42.206;25.320;2022-11-12T14:35:17;6.70;;;3.40;;
73487;SDS011;61721;42.206;25.320;2022-11-12T14:38:02;8.80;;;3.50;;
73487;SDS011;61721;42.206;25.320;2022-11-12T14:40:37;6.10;;;3.42;;
73487;SDS011;61721;42.206;25.320;2022-11-12T14:43:16;8.35;;;4.80;;
73487;SDS011;61721;42.206;25.320;2022-11-12T14:45:47;9.07;;;4.10;;
73487;SDS011;61721;42.206;25.320;2022-11-12T14:48:15;8.20;;;4.40;;
73487;SDS011;61721;42.206;25.320;2022-11-12T14:50:43;7.05;;;3.80;;
73487;SDS011;61721;42.206;25.320;2022-11-12T14:53:13;10.57;;;4.93;;
73487;SDS011;61721;42.206;25.320;2022-11-12T14:55:48;8.48;;;4.50;;
73487;SDS011;61721;42.206;25.320;2022-11-12T14:58:18;6.82;;;3.65;;
73487;SDS011;61721;42.206;25.320;2022-11-12T15:00:48;6.32;;;3.60;;
73487;SDS011;61721;42.206;25.320;2022-11-12T15:03:17;5.35;;;2.90;;
73487;SDS011;61721;42.206;25.320;2022-11-12T15:05:53;5.55;;;2.72;;
73487;SDS011;61721;42.206;25.320;2022-11-12T15:08:30;5.72;;;2.95;;
73487;SDS011;61721;42.206;25.320;2022-11-12T15:11:15;4.68;;;2.70;;
73487;SDS011;61721;42.206;25.320;2022-11-12T15:13:46;5.82;;;3.15;;
73487;SDS011;61721;42.206;25.320;2022-11-12T15:16:16;6.32;;;3.17;;